Time;durP1;ratioP1;P1;durP2;ratioP2;P2;SDS_P1;SDS_P2;PMS_P1;PMS_P2;Temp;Humidity;BMP_temperature;BMP_pressure;BME280_temperature;BME280_humidity;BME280_pressure;Samples;Min_cycle;Max_cycle;Signal;HPM_P1;HPM_P2
2021/03/16 00:01:20;;;;;;;27.20;16.98;;;4.70;98.80;;;;;;5069384;28;20209;-70
2021/03/16 00:03:47;;;;;;;21.17;14.27;;;4.90;98.40;;;;;;5055271;28;20229;-69
2021/03/16 00:06:17;;;;;;;19.67;13.60;;;5.00;97.80;;;;;;5070883;28;20515;-70
2021/03/16 00:08:44;;;;;;;21.92;14.55;;;5.10;97.50;;;;;;5066124;28;20206;-71
2021/03/16 00:11:11;;;;;;;25.23;13.85;;;5.20;97.10;;;;;;5065807;28;20222;-69
2021/03/16 00:13:38;;;;;;;23.05;14.20;;;5.40;97.00;;;;;;5070294;28;20214;-69
2021/03/16 00:16:05;;;;;;;21.75;14.80;;;5.00;97.20;;;;;;5069029;28;20356;-69
2021/03/16 00:18:32;;;;;;;17.50;13.65;;;5.10;97.50;;;;;;5072077;28;20238;-69
2021/03/16 00:20:58;;;;;;;20.10;13.75;;;5.10;97.30;;;;;;5069184;28;20350;-71
2021/03/16 00:23:25;;;;;;;20.85;15.02;;;5.20;97.40;;;;;;5055509;28;20462;-71
2021/03/16 00:25:51;;;;;;;22.67;14.48;;;5.10;97.40;;;;;;5079702;28;20206;-73
2021/03/16 00:28:18;;;;;;;21.00;14.27;;;5.10;97.80;;;;;;5073082;28;20492;-73
2021/03/16 00:30:45;;;;;;;21.48;15.27;;;5.30;97.90;;;;;;5080120;28;20209;-72
2021/03/16 00:33:13;;;;;;;22.15;15.80;;;5.20;97.80;;;;;;5055118;28;20214;-71
2021/03/16 00:35:40;;;;;;;24.38;16.98;;;5.10;98.30;;;;;;5062096;28;20269;-72
2021/03/16 00:38:06;;;;;;;22.35;14.73;;;5.10;98.20;;;;;;5053848;28;20226;-74
2021/03/16 00:40:33;;;;;;;22.33;15.07;;;5.00;98.50;;;;;;5070748;28;20432;-71
2021/03/16 00:43:00;;;;;;;21.23;14.20;;;5.00;98.80;;;;;;5075390;28;20245;-72
2021/03/16 00:45:27;;;;;;;20.92;14.45;;;5.00;98.80;;;;;;5071932;28;20244;-73
2021/03/16 00:47:54;;;;;;;21.20;14.45;;;5.20;98.70;;;;;;5067963;28;20206;-73
2021/03/16 00:50:20;;;;;;;22.30;15.05;;;5.20;98.60;;;;;;5066039;28;20507;-74
2021/03/16 00:52:54;;;;;;;16.77;14.50;;;5.40;98.50;;;;;;5068012;28;20248;-74
2021/03/16 00:55:33;;;;;;;17.08;14.20;;;5.30;98.60;;;;;;5055280;28;20213;-74
2021/03/16 00:58:00;;;;;;;17.63;13.38;;;5.20;98.70;;;;;;5065138;28;20221;-75
2021/03/16 01:00:27;;;;;;;21.02;13.57;;;5.30;98.90;;;;;;5078489;28;20214;-75
2021/03/16 01:02:54;;;;;;;21.08;15.30;;;5.50;98.50;;;;;;5060869;28;20575;-77
2021/03/16 01:05:22;;;;;;;16.65;13.13;;;5.40;98.50;;;;;;5079178;28;20207;-76
2021/03/16 01:07:49;;;;;;;17.40;13.90;;;5.50;98.60;;;;;;5062088;28;20289;-78
2021/03/16 01:10:18;;;;;;;18.33;12.48;;;5.50;98.60;;;;;;5078385;28;20215;-76
2021/03/16 01:12:45;;;;;;;15.60;12.30;;;5.50;98.80;;;;;;5061195;28;20214;-76
2021/03/16 01:15:13;;;;;;;17.80;13.32;;;5.40;98.70;;;;;;5062277;28;20210;-75
2021/03/16 01:17:39;;;;;;;16.35;12.18;;;5.30;98.90;;;;;;5061287;28;20214;-76
2021/03/16 01:20:16;;;;;;;20.90;12.18;;;5.30;99.00;;;;;;5059522;28;20248;-75
2021/03/16 01:22:43;;;;;;;19.15;14.73;;;6.10;99.50;;;;;;5039755;28;20241;-76
2021/03/16 01:25:11;;;;;;;17.58;12.20;;;5.20;99.40;;;;;;5066070;28;20218;-76
2021/03/16 01:27:37;;;;;;;20.15;14.68;;;5.10;99.50;;;;;;5060198;28;20294;-76
2021/03/16 01:30:06;;;;;;;18.55;13.50;;;5.00;99.70;;;;;;5060965;28;20206;-75
2021/03/16 01:32:33;;;;;;;16.73;11.57;;;5.10;99.70;;;;;;5055403;28;20279;-76
2021/03/16 01:35:02;;;;;;;21.15;12.40;;;5.20;99.70;;;;;;5054892;28;20572;-76
2021/03/16 01:37:29;;;;;;;19.52;12.95;;;5.20;99.40;;;;;;5073798;28;20223;-75
2021/03/16 01:39:56;;;;;;;19.85;12.43;;;5.30;99.20;;;;;;5058702;28;20207;-77
2021/03/16 01:42:23;;;;;;;18.20;12.57;;;5.40;99.10;;;;;;5068360;28;20218;-76
2021/03/16 01:44:51;;;;;;;14.75;12.13;;;5.40;99.00;;;;;;5073870;28;20454;-76
2021/03/16 01:47:18;;;;;;;18.70;12.90;;;5.30;99.30;;;;;;5069689;28;20206;-75
2021/03/16 01:49:45;;;;;;;23.77;16.33;;;5.40;99.20;;;;;;5047450;28;20269;-76
2021/03/16 01:52:12;;;;;;;16.33;12.65;;;5.40;99.30;;;;;;5061666;28;20218;-75
2021/03/16 01:54:41;;;;;;;19.02;14.63;;;5.30;99.20;;;;;;5069846;28;20206;-75
2021/03/16 01:57:10;;;;;;;18.75;14.20;;;5.30;99.20;;;;;;5069387;28;20287;-74
2021/03/16 01:59:37;;;;;;;19.17;15.02;;;5.40;99.30;;;;;;5073610;28;20268;-74
2021/03/16 02:02:07;;;;;;;19.25;15.13;;;5.20;99.40;;;;;;5060405;28;20581;-74
2021/03/16 02:04:33;;;;;;;14.88;12.95;;;5.30;99.60;;;;;;5078364;28;20211;-75
2021/03/16 02:07:13;;;;;;;16.13;12.73;;;5.20;99.50;;;;;;5043237;28;20211;-75
2021/03/16 02:09:44;;;;;;;15.25;12.60;;;5.10;99.80;;;;;;5072418;28;20587;-75
2021/03/16 02:12:15;;;;;;;16.88;13.40;;;4.90;99.90;;;;;;5048264;28;20210;-75
2021/03/16 02:14:47;;;;;;;16.52;13.15;;;5.00;99.90;;;;;;5077535;28;20221;-75
2021/03/16 02:17:22;;;;;;;14.30;12.23;;;5.00;99.90;;;;;;5061443;28;20265;-75
2021/03/16 02:20:08;;;;;;;12.75;10.80;;;5.00;99.90;;;;;;5077880;28;20519;-75
2021/03/16 02:22:42;;;;;;;15.10;13.40;;;5.00;99.90;;;;;;5076762;28;20416;-74
2021/03/16 02:25:42;;;;;;;14.77;12.73;;;5.20;99.90;;;;;;5064739;28;20281;-73
2021/03/16 02:28:40;;;;;;;15.02;11.57;;;5.30;99.80;;;;;;5061312;28;20304;-74
2021/03/16 02:31:10;;;;;;;17.08;13.95;;;5.30;99.70;;;;;;5061401;28;20203;-74
2021/03/16 02:33:39;;;;;;;17.10;13.75;;;5.00;99.90;;;;;;5064511;28;20641;-75
2021/03/16 02:36:07;;;;;;;13.55;12.05;;;5.10;99.90;;;;;;5070550;28;20203;-73
2021/03/16 02:38:40;;;;;;;15.60;12.77;;;5.30;99.90;;;;;;5074601;28;20205;-74
2021/03/16 02:41:11;;;;;;;16.10;12.82;;;5.20;99.90;;;;;;5075165;28;20264;-74
2021/03/16 02:43:37;;;;;;;19.73;12.88;;;5.20;99.90;;;;;;5078527;28;20386;-75
2021/03/16 02:46:06;;;;;;;15.00;12.13;;;5.20;99.90;;;;;;5076867;28;20239;-74
2021/03/16 02:48:35;;;;;;;15.27;11.95;;;5.20;99.80;;;;;;5076262;28;20238;-74
2021/03/16 02:51:02;;;;;;;13.00;11.63;;;5.10;99.90;;;;;;5060270;28;20214;-73
2021/03/16 02:53:29;;;;;;;14.60;11.73;;;5.00;99.90;;;;;;5070536;28;20265;-74
2021/03/16 02:55:56;;;;;;;16.13;11.77;;;5.10;99.90;;;;;;5071208;28;20207;-73
2021/03/16 02:58:24;;;;;;;16.40;11.93;;;5.20;99.90;;;;;;5077115;28;20224;-76
2021/03/16 03:00:52;;;;;;;14.98;11.18;;;5.40;99.70;;;;;;5076444;28;20225;-75
2021/03/16 03:03:21;;;;;;;14.05;11.23;;;5.40;99.70;;;;;;5059476;28;20404;-73
2021/03/16 03:05:50;;;;;;;13.77;11.50;;;5.10;99.80;;;;;;5076920;28;20206;-73
2021/03/16 03:08:20;;;;;;;12.43;9.70;;;5.10;99.90;;;;;;5076695;28;20210;-76
2021/03/16 03:10:47;;;;;;;13.90;11.50;;;5.00;99.90;;;;;;5076645;28;20214;-74
2021/03/16 03:13:13;;;;;;;13.68;10.63;;;5.00;99.90;;;;;;5059315;28;20228;-74
2021/03/16 03:15:40;;;;;;;12.50;10.57;;;4.80;99.90;;;;;;5077196;28;20217;-74
2021/03/16 03:18:07;;;;;;;13.40;10.48;;;4.50;99.90;;;;;;5076346;28;20206;-74
2021/03/16 03:20:35;;;;;;;12.13;10.57;;;4.50;99.90;;;;;;5058808;28;20280;-76
2021/03/16 03:23:17;;;;;;;12.77;9.93;;;4.50;99.90;;;;;;5073768;28;20230;-74
2021/03/16 03:25:54;;;;;;;15.10;10.98;;;4.40;99.90;;;;;;5068908;28;20467;-75
2021/03/16 03:28:25;;;;;;;15.27;10.45;;;4.30;99.90;;;;;;5063006;28;20254;-74
2021/03/16 03:30:52;;;;;;;13.80;10.85;;;4.30;99.90;;;;;;5077238;28;20212;-75
2021/03/16 03:33:24;;;;;;;13.27;11.35;;;4.40;99.90;;;;;;5072305;28;20217;-74
2021/03/16 03:35:51;;;;;;;16.85;11.68;;;4.50;99.90;;;;;;5040326;28;20210;-75
2021/03/16 03:38:20;;;;;;;14.35;12.85;;;4.60;99.90;;;;;;5040338;28;20234;-75
2021/03/16 03:40:48;;;;;;;15.00;11.35;;;4.80;99.90;;;;;;5057336;28;20386;-76
2021/03/16 03:43:18;;;;;;;14.88;12.60;;;4.50;99.90;;;;;;5056135;28;20231;-73
2021/03/16 03:45:48;;;;;;;16.42;11.77;;;4.40;99.90;;;;;;5039644;28;20237;-74
2021/03/16 03:48:16;;;;;;;17.27;13.70;;;4.40;99.90;;;;;;5057258;28;20215;-73
2021/03/16 03:50:44;;;;;;;18.35;12.43;;;4.50;99.90;;;;;;5074513;28;20206;-73
2021/03/16 03:53:11;;;;;;;10.95;8.63;;;4.50;99.90;;;;;;5076353;28;20281;-73
2021/03/16 03:55:38;;;;;;;15.43;10.85;;;4.40;99.90;;;;;;5040672;28;20212;-76
2021/03/16 03:58:05;;;;;;;13.02;9.73;;;4.30;99.90;;;;;;5064573;28;20217;-75
2021/03/16 04:00:32;;;;;;;12.70;9.95;;;4.30;99.90;;;;;;5065249;28;20231;-76
2021/03/16 04:03:02;;;;;;;15.00;11.27;;;4.30;99.90;;;;;;5038440;28;20258;-75
2021/03/16 04:05:29;;;;;;;11.00;9.85;;;4.20;99.90;;;;;;5047511;28;20280;-76
2021/03/16 04:07:57;;;;;;;14.50;10.95;;;4.30;99.90;;;;;;5067103;28;20213;-76
2021/03/16 04:10:24;;;;;;;13.80;11.35;;;4.30;99.90;;;;;;5053373;28;20281;-76
2021/03/16 04:12:52;;;;;;;18.42;13.23;;;4.30;99.90;;;;;;5069109;28;20465;-76
2021/03/16 04:15:19;;;;;;;14.93;12.00;;;4.30;99.90;;;;;;5067444;28;20210;-76
2021/03/16 04:17:46;;;;;;;15.65;9.73;;;4.30;99.90;;;;;;5053729;28;20206;-75
2021/03/16 04:20:15;;;;;;;14.45;10.65;;;4.30;99.90;;;;;;5056335;28;20266;-80
2021/03/16 04:22:43;;;;;;;14.02;10.50;;;4.30;99.90;;;;;;5054409;28;20352;-79
2021/03/16 04:25:10;;;;;;;12.23;10.05;;;4.30;99.90;;;;;;5059028;28;20213;-78
2021/03/16 04:27:37;;;;;;;9.35;7.80;;;4.20;99.90;;;;;;5062848;28;20222;-77
2021/03/16 04:30:06;;;;;;;9.48;7.40;;;3.40;99.90;;;;;;5057591;28;20213;-77
2021/03/16 04:32:34;;;;;;;12.02;7.88;;;3.90;99.90;;;;;;5061848;28;20222;-77
2021/03/16 04:35:01;;;;;;;11.85;8.40;;;3.90;99.90;;;;;;5053854;28;20217;-76
2021/03/16 04:37:28;;;;;;;11.15;7.10;;;3.80;99.90;;;;;;5055210;28;20248;-74
2021/03/16 04:39:54;;;;;;;9.32;6.85;;;3.90;99.90;;;;;;5066970;28;20217;-76
2021/03/16 04:42:21;;;;;;;9.18;7.10;;;4.00;99.90;;;;;;5046800;28;20272;-75
2021/03/16 04:44:47;;;;;;;8.65;7.40;;;4.10;99.90;;;;;;5075151;28;20614;-74
2021/03/16 04:47:14;;;;;;;9.10;7.97;;;4.10;99.90;;;;;;5075854;28;20321;-76
2021/03/16 04:49:41;;;;;;;14.30;8.50;;;4.10;99.90;;;;;;5058754;28;20210;-75
2021/03/16 04:52:08;;;;;;;11.02;9.18;;;4.10;99.90;;;;;;5057643;28;20209;-74
2021/03/16 04:54:35;;;;;;;11.63;9.63;;;4.30;99.90;;;;;;5075225;28;20213;-75
2021/03/16 04:57:02;;;;;;;12.65;9.18;;;4.30;99.90;;;;;;5067629;28;20210;-74
2021/03/16 04:59:28;;;;;;;14.10;10.35;;;4.30;99.90;;;;;;5046594;28;20211;-74
2021/03/16 05:01:55;;;;;;;18.58;12.48;;;4.20;99.90;;;;;;5078003;28;20205;-75
2021/03/16 05:04:22;;;;;;;16.48;10.77;;;4.20;99.90;;;;;;5061708;28;20233;-73
2021/03/16 05:06:48;;;;;;;19.42;11.23;;;4.40;99.90;;;;;;5070063;28;20209;-74
2021/03/16 05:09:15;;;;;;;17.27;11.73;;;4.40;99.90;;;;;;5075083;28;20210;-74
2021/03/16 05:11:42;;;;;;;18.15;12.55;;;4.50;99.90;;;;;;5064402;28;20248;-74
2021/03/16 05:14:08;;;;;;;16.30;12.05;;;4.40;99.90;;;;;;5067673;28;20218;-73
2021/03/16 05:16:35;;;;;;;20.88;13.90;;;4.20;99.90;;;;;;5064406;28;20215;-73
2021/03/16 05:19:02;;;;;;;21.45;13.88;;;4.20;99.90;;;;;;5076883;28;20447;-73
2021/03/16 05:21:30;;;;;;;20.15;11.38;;;4.30;99.90;;;;;;5070010;28;20206;-74
2021/03/16 05:23:56;;;;;;;17.02;10.65;;;4.30;99.90;;;;;;5078676;28;20252;-73
2021/03/16 05:26:24;;;;;;;17.60;11.25;;;4.30;99.90;;;;;;5074044;28;20206;-76
2021/03/16 05:29:03;;;;;;;17.00;10.93;;;4.30;99.90;;;;;;5077750;28;20244;-74
2021/03/16 05:31:30;;;;;;;13.73;11.10;;;4.40;99.90;;;;;;5077592;28;20214;-73
2021/03/16 05:33:57;;;;;;;20.77;12.32;;;4.30;99.90;;;;;;5078800;28;20248;-72
2021/03/16 05:36:24;;;;;;;15.05;11.80;;;4.30;99.90;;;;;;5077155;28;20213;-73
2021/03/16 05:38:51;;;;;;;16.75;12.95;;;4.30;99.90;;;;;;5078336;28;20219;-72
2021/03/16 05:41:19;;;;;;;14.50;11.75;;;4.30;99.90;;;;;;5058149;28;20282;-74
2021/03/16 05:43:47;;;;;;;17.77;13.18;;;4.30;99.90;;;;;;5072306;28;20646;-75
2021/03/16 05:46:15;;;;;;;17.67;13.63;;;4.20;99.90;;;;;;5078077;28;20268;-74
2021/03/16 05:48:49;;;;;;;19.58;14.00;;;4.40;99.90;;;;;;5076208;28;20288;-73
2021/03/16 05:51:16;;;;;;;15.88;13.23;;;4.40;99.90;;;;;;5078272;28;20212;-75
2021/03/16 05:53:48;;;;;;;17.30;13.68;;;4.50;99.90;;;;;;5075795;28;20233;-73
2021/03/16 05:56:15;;;;;;;17.13;14.52;;;4.60;99.90;;;;;;5071276;28;20209;-73
2021/03/16 05:58:43;;;;;;;17.67;14.27;;;4.10;99.90;;;;;;5074394;28;20201;-73
2021/03/16 06:01:12;;;;;;;18.20;15.10;;;4.40;99.90;;;;;;5065316;28;20499;-73
2021/03/16 06:03:39;;;;;;;17.35;13.23;;;4.40;99.90;;;;;;5071991;28;20323;-72
2021/03/16 06:06:09;;;;;;;15.13;13.07;;;4.50;99.90;;;;;;5070370;28;20197;-72
2021/03/16 06:08:35;;;;;;;16.88;12.55;;;4.30;99.90;;;;;;5059425;28;20212;-73
2021/03/16 06:11:03;;;;;;;14.98;11.65;;;4.20;99.90;;;;;;5066585;28;20217;-74
2021/03/16 06:13:30;;;;;;;10.07;9.02;;;4.20;99.90;;;;;;5051061;28;20269;-73
2021/03/16 06:15:59;;;;;;;13.13;9.50;;;4.20;99.90;;;;;;5067718;28;20284;-76
2021/03/16 06:18:28;;;;;;;16.83;13.60;;;4.20;99.90;;;;;;5060333;28;20202;-75
2021/03/16 06:21:02;;;;;;;15.35;10.60;;;4.20;99.90;;;;;;5068320;28;20379;-74
2021/03/16 06:23:36;;;;;;;15.27;12.45;;;4.30;99.90;;;;;;5056405;28;20226;-75
2021/03/16 06:26:11;;;;;;;13.50;11.68;;;4.30;99.90;;;;;;5054734;28;20212;-74
2021/03/16 06:28:38;;;;;;;14.23;10.07;;;4.50;99.90;;;;;;5075901;28;20215;-75
2021/03/16 06:31:05;;;;;;;12.85;11.45;;;4.90;99.90;;;;;;5069199;28;20237;-75
2021/03/16 06:33:34;;;;;;;11.88;9.95;;;4.70;99.90;;;;;;5069804;28;20222;-74
2021/03/16 06:36:06;;;;;;;12.95;8.55;;;4.70;99.90;;;;;;5052339;28;20205;-74
2021/03/16 06:38:34;;;;;;;10.13;8.75;;;4.60;99.90;;;;;;5076680;28;20407;-75
2021/03/16 06:41:13;;;;;;;11.35;10.18;;;4.60;99.90;;;;;;5058256;28;20213;-75
2021/03/16 06:43:41;;;;;;;13.80;10.27;;;4.50;99.90;;;;;;5053183;28;20658;-74
2021/03/16 06:46:09;;;;;;;16.05;11.52;;;4.50;99.90;;;;;;5073466;28;20308;-74
2021/03/16 06:48:38;;;;;;;15.35;10.90;;;4.50;99.90;;;;;;5072179;28;20273;-77
2021/03/16 06:51:10;;;;;;;11.55;10.18;;;4.60;99.90;;;;;;5076671;28;20508;-75
2021/03/16 06:53:36;;;;;;;12.07;9.70;;;4.60;99.90;;;;;;5068789;28;20228;-75
2021/03/16 06:56:41;;;;;;;13.95;11.15;;;4.50;99.90;;;;;;5049430;28;20249;-76
2021/03/16 06:59:20;;;;;;;14.55;11.48;;;4.60;99.90;;;;;;5045696;28;20221;-77
2021/03/16 07:01:47;;;;;;;15.45;11.20;;;4.70;99.90;;;;;;5058734;28;20229;-77
2021/03/16 07:04:21;;;;;;;15.52;12.13;;;4.70;99.90;;;;;;5057456;28;20230;-77
2021/03/16 07:06:49;;;;;;;17.30;13.27;;;4.60;99.90;;;;;;5058482;28;20197;-77
2021/03/16 07:09:18;;;;;;;19.08;14.02;;;4.70;99.90;;;;;;5056851;28;20281;-76
2021/03/16 07:11:53;;;;;;;20.15;15.70;;;4.80;99.90;;;;;;5056660;28;20244;-75
2021/03/16 07:14:21;;;;;;;16.70;14.55;;;4.80;99.90;;;;;;5058231;28;20205;-76
2021/03/16 07:16:55;;;;;;;18.10;12.82;;;4.80;99.90;;;;;;5076078;28;20213;-76
2021/03/16 07:19:28;;;;;;;18.48;15.77;;;4.80;99.90;;;;;;5072151;28;20685;-78
2021/03/16 07:21:57;;;;;;;20.70;15.75;;;4.60;99.90;;;;;;5074936;28;20245;-76
2021/03/16 07:24:30;;;;;;;21.23;14.93;;;4.60;99.90;;;;;;5052350;28;20328;-75
2021/03/16 07:26:58;;;;;;;13.52;10.75;;;4.80;99.90;;;;;;5057729;28;20217;-77
2021/03/16 07:29:27;;;;;;;20.02;11.65;;;5.00;99.90;;;;;;5066973;28;20289;-76
2021/03/16 07:32:04;;;;;;;10.48;9.48;;;5.10;99.90;;;;;;5055125;28;20202;-78
2021/03/16 07:34:33;;;;;;;14.63;10.65;;;5.20;99.90;;;;;;5050337;28;20210;-75
2021/03/16 07:37:06;;;;;;;8.55;7.65;;;5.20;99.90;;;;;;5055668;28;20276;-76
2021/03/16 07:39:34;;;;;;;9.75;8.55;;;5.10;99.90;;;;;;5055980;28;20221;-76
2021/03/16 07:42:02;;;;;;;12.55;9.88;;;5.10;99.90;;;;;;5045548;28;20273;-75
2021/03/16 07:44:42;;;;;;;11.00;8.90;;;5.10;99.90;;;;;;5070549;28;20239;-76
2021/03/16 07:47:11;;;;;;;11.15;7.78;;;5.10;99.90;;;;;;5019201;28;20204;-76
2021/03/16 07:49:40;;;;;;;9.50;8.50;;;5.10;99.90;;;;;;5034771;28;20552;-77
2021/03/16 07:52:23;;;;;;;8.68;7.53;;;5.00;99.90;;;;;;5021000;28;20257;-76
2021/03/16 07:54:52;;;;;;;12.13;8.27;;;5.10;99.90;;;;;;5034968;28;20210;-84
2021/03/16 07:57:31;;;;;;;15.98;8.45;;;5.10;99.90;;;;;;5012955;28;20750;-76
2021/03/16 08:00:00;;;;;;;9.15;8.25;;;5.10;99.90;;;;;;5031455;28;20453;-77
2021/03/16 08:02:31;;;;;;;9.23;8.25;;;5.10;99.90;;;;;;5027862;28;20306;-75
2021/03/16 08:05:00;;;;;;;8.48;7.55;;;5.20;99.90;;;;;;5028613;28;20208;-77
2021/03/16 08:07:29;;;;;;;8.07;6.30;;;5.30;99.90;;;;;;5029162;28;20215;-76
2021/03/16 08:09:58;;;;;;;8.93;7.95;;;5.40;99.90;;;;;;5031373;28;20514;-76
2021/03/16 08:12:27;;;;;;;9.02;7.05;;;5.50;99.90;;;;;;5026118;28;20213;-78
2021/03/16 08:15:12;;;;;;;10.10;8.27;;;5.70;99.90;;;;;;5029503;28;20212;-76
2021/03/16 08:17:41;;;;;;;9.93;8.15;;;5.70;99.90;;;;;;5028723;28;20544;-76
2021/03/16 08:20:25;;;;;;;6.90;6.20;;;5.60;99.90;;;;;;5032189;28;20250;-76
2021/03/16 08:23:13;;;;;;;8.15;6.80;;;5.50;99.90;;;;;;5032902;28;20395;-74
2021/03/16 08:25:44;;;;;;;9.30;7.63;;;5.40;99.90;;;;;;5033731;28;20267;-74
2021/03/16 08:28:19;;;;;;;7.60;6.65;;;5.40;99.90;;;;;;5029759;28;20422;-75
2021/03/16 08:30:52;;;;;;;10.05;8.48;;;5.50;99.90;;;;;;5030530;28;20241;-75
2021/03/16 08:33:20;;;;;;;11.75;10.45;;;5.70;99.90;;;;;;5052811;28;20329;-77
2021/03/16 08:35:55;;;;;;;10.60;9.35;;;5.70;99.90;;;;;;5028945;28;20438;-76
2021/03/16 08:38:28;;;;;;;13.93;10.90;;;5.80;99.80;;;;;;5031569;28;20231;-76
2021/03/16 08:41:03;;;;;;;9.68;8.68;;;6.00;99.90;;;;;;5028759;28;20238;-75
2021/03/16 08:43:31;;;;;;;10.50;9.32;;;6.10;99.20;;;;;;5031950;28;20534;-75
2021/03/16 08:45:58;;;;;;;12.50;10.90;;;6.10;99.40;;;;;;5053845;28;20231;-76
2021/03/16 08:48:37;;;;;;;13.38;10.98;;;6.10;99.40;;;;;;5066294;28;20208;-76
2021/03/16 08:51:06;;;;;;;11.02;9.93;;;6.20;99.90;;;;;;5053743;28;20222;-76
2021/03/16 08:53:34;;;;;;;13.27;10.95;;;6.30;99.50;;;;;;5061634;28;20244;-77
2021/03/16 08:56:01;;;;;;;10.32;9.10;;;6.50;99.00;;;;;;5052302;28;20252;-74
2021/03/16 08:58:30;;;;;;;9.60;8.23;;;6.60;98.20;;;;;;5052105;28;20203;-74
2021/03/16 09:00:57;;;;;;;10.10;8.82;;;6.70;98.30;;;;;;5062758;28;20203;-77
2021/03/16 09:03:28;;;;;;;6.53;5.70;;;6.70;98.10;;;;;;5045463;28;20243;-75
2021/03/16 09:05:58;;;;;;;7.00;5.68;;;6.40;98.10;;;;;;5055120;28;20207;-76
2021/03/16 09:08:26;;;;;;;5.85;5.25;;;6.20;98.50;;;;;;5047296;28;20445;-75
2021/03/16 09:10:54;;;;;;;5.93;5.15;;;6.20;98.20;;;;;;5073900;28;20203;-76
2021/03/16 09:13:33;;;;;;;5.80;4.80;;;6.10;98.40;;;;;;5061829;28;20441;-76
2021/03/16 09:16:02;;;;;;;6.15;5.55;;;6.20;98.40;;;;;;5060745;28;20210;-77
2021/03/16 09:18:33;;;;;;;8.98;6.55;;;6.30;98.60;;;;;;5062876;28;20410;-75
2021/03/16 09:21:05;;;;;;;8.23;6.10;;;6.30;98.50;;;;;;5055366;28;20436;-74
2021/03/16 09:23:33;;;;;;;6.43;5.82;;;6.40;99.00;;;;;;5078484;28;20598;-75
2021/03/16 09:26:01;;;;;;;5.63;5.13;;;6.40;98.50;;;;;;5076185;28;20219;-74
2021/03/16 09:28:36;;;;;;;8.32;6.82;;;6.30;98.30;;;;;;5047329;28;20211;-75
2021/03/16 09:31:09;;;;;;;10.68;8.07;;;6.40;98.90;;;;;;5071306;28;20215;-72
2021/03/16 09:33:42;;;;;;;8.02;6.75;;;6.60;98.60;;;;;;5079130;28;20221;-75
2021/03/16 09:36:10;;;;;;;13.10;8.32;;;6.60;98.20;;;;;;5047490;28;20210;-74
2021/03/16 09:38:37;;;;;;;12.35;9.80;;;6.60;98.30;;;;;;5062382;28;20266;-75
2021/03/16 09:41:11;;;;;;;10.48;7.15;;;6.60;98.60;;;;;;5073200;28;20225;-74
2021/03/16 09:43:39;;;;;;;6.88;6.18;;;6.80;98.90;;;;;;5052091;28;20306;-73
2021/03/16 09:46:09;;;;;;;6.97;6.28;;;6.70;97.80;;;;;;5070213;28;20242;-75
2021/03/16 09:48:49;;;;;;;4.90;4.25;;;6.50;98.00;;;;;;5076369;28;20441;-74
2021/03/16 09:51:26;;;;;;;5.07;4.57;;;6.50;98.40;;;;;;5076007;28;20207;-74
2021/03/16 09:54:09;;;;;;;4.95;3.97;;;6.40;97.60;;;;;;5074275;28;20211;-74
2021/03/16 09:56:51;;;;;;;5.55;4.43;;;6.30;97.80;;;;;;5078041;28;20393;-73
2021/03/16 09:59:18;;;;;;;6.95;4.82;;;6.40;98.30;;;;;;5059323;28;20218;-74
2021/03/16 10:02:00;;;;;;;5.65;4.57;;;6.30;98.40;;;;;;5076958;28;20210;-76
2021/03/16 10:04:27;;;;;;;6.78;5.28;;;6.30;98.60;;;;;;5076165;28;20249;-75
2021/03/16 10:06:57;;;;;;;6.18;5.57;;;6.30;98.20;;;;;;5077713;28;20574;-74
2021/03/16 10:09:27;;;;;;;7.90;5.75;;;6.20;98.10;;;;;;5075329;28;20240;-75
2021/03/16 10:12:00;;;;;;;8.48;5.47;;;6.30;98.70;;;;;;5076664;28;20247;-74
2021/03/16 10:14:34;;;;;;;8.75;6.13;;;6.40;98.20;;;;;;5069367;28;20204;-75
2021/03/16 10:17:03;;;;;;;4.90;4.45;;;6.40;98.30;;;;;;5072729;28;20233;-73
2021/03/16 10:19:31;;;;;;;6.13;5.53;;;6.40;97.60;;;;;;5068245;28;20211;-75
2021/03/16 10:22:09;;;;;;;8.13;4.72;;;6.30;98.40;;;;;;5058419;28;20237;-74
2021/03/16 10:24:42;;;;;;;4.47;4.07;;;6.20;98.10;;;;;;5076881;28;20226;-73
2021/03/16 10:27:09;;;;;;;4.70;4.22;;;6.30;98.10;;;;;;5077254;28;20207;-73
2021/03/16 10:29:37;;;;;;;4.47;4.05;;;6.40;97.90;;;;;;5073642;28;20541;-74
2021/03/16 10:32:06;;;;;;;4.00;3.20;;;6.50;97.50;;;;;;5076829;28;20221;-76
2021/03/16 10:34:33;;;;;;;3.38;2.95;;;6.50;97.10;;;;;;5075387;28;20206;-73
2021/03/16 10:37:00;;;;;;;3.40;3.10;;;6.40;97.10;;;;;;5059266;28;20436;-75
2021/03/16 10:39:26;;;;;;;5.00;3.80;;;6.30;97.80;;;;;;5057657;28;20506;-74
2021/03/16 10:41:53;;;;;;;5.10;3.67;;;6.20;97.80;;;;;;5059165;28;20293;-74
2021/03/16 10:44:20;;;;;;;4.45;3.83;;;6.30;97.70;;;;;;5077398;28;20294;-72
2021/03/16 10:46:47;;;;;;;6.35;4.60;;;6.30;97.80;;;;;;5077012;28;20239;-74
2021/03/16 10:49:14;;;;;;;5.15;4.32;;;6.30;98.20;;;;;;5068653;28;20211;-73
2021/03/16 10:51:41;;;;;;;4.68;4.25;;;6.20;98.50;;;;;;5077871;28;20206;-71
2021/03/16 10:54:09;;;;;;;5.88;5.05;;;5.90;99.30;;;;;;5077278;28;20317;-73
2021/03/16 10:56:36;;;;;;;5.10;4.60;;;5.80;99.90;;;;;;5077717;28;20242;-72
2021/03/16 10:59:03;;;;;;;7.38;5.03;;;5.70;99.90;;;;;;5076062;28;20382;-72
2021/03/16 11:01:32;;;;;;;6.47;4.85;;;5.70;99.90;;;;;;5076748;28;20278;-72
2021/03/16 11:04:04;;;;;;;8.95;6.55;;;5.70;99.90;;;;;;5074034;28;20226;-71
2021/03/16 11:06:31;;;;;;;8.98;5.55;;;5.60;99.90;;;;;;5076979;28;20207;-73
2021/03/16 11:08:58;;;;;;;6.75;6.03;;;5.60;99.90;;;;;;5077489;28;20198;-71
2021/03/16 11:11:25;;;;;;;8.13;7.00;;;5.50;99.90;;;;;;5069705;28;20716;-71
2021/03/16 11:13:51;;;;;;;7.35;5.68;;;5.50;99.90;;;;;;5077448;28;20461;-72
2021/03/16 11:16:18;;;;;;;6.38;5.78;;;5.50;99.90;;;;;;5073204;28;20274;-71
2021/03/16 11:18:45;;;;;;;6.07;5.45;;;5.40;99.90;;;;;;5058375;28;20210;-73
2021/03/16 11:21:12;;;;;;;6.55;5.85;;;5.40;99.90;;;;;;5075745;28;20408;-72
2021/03/16 11:23:39;;;;;;;8.23;6.20;;;5.30;99.90;;;;;;5075152;28;20234;-74
2021/03/16 11:26:06;;;;;;;7.28;5.75;;;5.20;99.90;;;;;;5069847;28;20270;-73
2021/03/16 11:28:32;;;;;;;7.53;5.68;;;5.20;99.90;;;;;;5068756;28;20265;-74
2021/03/16 11:30:59;;;;;;;6.95;6.20;;;5.20;99.90;;;;;;5053669;28;20206;-73
2021/03/16 11:33:29;;;;;;;7.53;6.72;;;5.20;99.90;;;;;;5071773;28;20264;-74
2021/03/16 11:35:56;;;;;;;8.85;7.00;;;5.20;99.90;;;;;;5055622;28;20544;-75
2021/03/16 11:38:24;;;;;;;8.68;7.32;;;5.60;99.90;;;;;;5066134;28;20254;-78
2021/03/16 11:40:52;;;;;;;13.80;9.63;;;5.20;99.90;;;;;;5052764;28;20327;-75
2021/03/16 11:43:18;;;;;;;9.82;8.38;;;5.20;99.90;;;;;;5071656;28;20261;-78
2021/03/16 11:45:45;;;;;;;11.40;8.73;;;5.30;99.90;;;;;;5064512;28;20305;-77
2021/03/16 11:48:12;;;;;;;11.60;7.47;;;5.20;99.90;;;;;;5048734;28;20219;-75
2021/03/16 11:50:39;;;;;;;11.65;9.02;;;5.20;99.90;;;;;;5075034;28;20248;-77
2021/03/16 11:53:08;;;;;;;9.95;7.88;;;5.10;99.90;;;;;;5058498;28;20206;-77
2021/03/16 11:55:35;;;;;;;8.05;7.20;;;5.10;99.90;;;;;;5056451;28;20253;-78
2021/03/16 11:58:02;;;;;;;6.90;6.22;;;5.10;99.90;;;;;;5076780;28;20512;-76
2021/03/16 12:00:29;;;;;;;6.85;6.15;;;5.00;99.90;;;;;;5075981;28;20334;-75
2021/03/16 12:02:57;;;;;;;7.22;5.10;;;5.00;99.90;;;;;;5076299;28;20226;-78
2021/03/16 12:05:24;;;;;;;6.45;5.85;;;5.00;99.90;;;;;;5075217;28;20416;-78
2021/03/16 12:07:51;;;;;;;6.13;5.50;;;4.90;99.90;;;;;;5058856;28;20210;-76
2021/03/16 12:10:18;;;;;;;7.63;5.80;;;4.90;99.90;;;;;;5058335;28;20264;-78
2021/03/16 12:12:46;;;;;;;7.10;5.88;;;5.10;99.90;;;;;;5063423;28;20234;-80
2021/03/16 12:15:16;;;;;;;7.30;6.20;;;5.00;99.90;;;;;;5058924;28;20217;-75
2021/03/16 12:17:44;;;;;;;6.50;5.40;;;4.90;99.90;;;;;;5057619;28;20773;-76
2021/03/16 12:20:13;;;;;;;8.70;6.90;;;5.00;99.90;;;;;;5075367;28;20226;-78
2021/03/16 12:22:45;;;;;;;5.95;5.13;;;5.00;99.90;;;;;;5072780;28;20584;-79
2021/03/16 12:25:15;;;;;;;5.20;4.70;;;5.00;99.90;;;;;;5073441;28;20226;-78
2021/03/16 12:27:44;;;;;;;7.80;6.50;;;5.10;99.90;;;;;;5046259;28;20230;-77
2021/03/16 12:30:12;;;;;;;6.20;5.53;;;5.00;99.90;;;;;;5058513;28;20210;-76
2021/03/16 12:32:40;;;;;;;7.20;5.38;;;5.10;99.90;;;;;;5053203;28;20248;-77
2021/03/16 12:35:13;;;;;;;9.48;7.30;;;5.10;99.90;;;;;;5051572;28;20520;-80
2021/03/16 12:37:46;;;;;;;7.00;5.70;;;5.00;99.90;;;;;;5067990;28;20271;-76
2021/03/16 12:40:20;;;;;;;6.72;5.72;;;5.00;99.90;;;;;;5060736;28;20217;-78
2021/03/16 12:42:51;;;;;;;6.57;5.38;;;5.10;99.90;;;;;;5074457;28;20260;-76
2021/03/16 12:45:20;;;;;;;6.90;5.35;;;5.10;99.90;;;;;;5057024;28;20263;-77
2021/03/16 12:47:50;;;;;;;5.70;5.20;;;5.00;99.90;;;;;;5056199;28;20211;-77
2021/03/16 12:50:19;;;;;;;6.35;5.75;;;5.00;99.90;;;;;;5075062;28;20534;-77
2021/03/16 12:52:47;;;;;;;5.82;5.18;;;5.00;99.90;;;;;;5058239;28;20236;-78
2021/03/16 12:55:18;;;;;;;6.90;6.28;;;5.00;99.90;;;;;;5053085;28;20219;-77
2021/03/16 12:57:45;;;;;;;9.77;6.00;;;5.00;99.90;;;;;;5075844;28;20214;-77